Aérodrome :
LOGIN :

S'inscrire | Disclaimer

   EN    FR    IT 

 










Légende :    VFR   VFR Marginal   IFR   IFR Intensif   IFR Très Intensif
Visi : 
Plafond : 
>= 8 km
>= 3000ft
5 à 8 km
1000 à 3000 ft
1500m à 5 km
500 à 1000 ft
800 à 1500m
200 à 500 ft
< 800m
< 200 ft
Symboles :   Orages  Brouillard  Fortes neiges  Fortes précipitations  Vent > 20 kt
SIGMETs :   Divers  Orages  Givrage  Turbulence  Onde Orograph.  Cendres Volcan.






- Altitude de l'aérodrome : 42 ft
- Code IATA : KGD


UMKK - Khrabrava - Kaliningrad

DERNIER METAR :
  • 131630Z 25010MPS 9999 BKN027 23/18 Q1008 R24/CLRD95 NOSIG RMK QFE755/1007

METARs EXPIRÉS :
  • 131614Z 25010G17MPS 9999 BKN028 24/18 Q1008 R24/95D NOSIG RMK QFE754/1006
  • 131542Z 26011MPS 9999 SCT030 24/18 Q1007 R24/95D NOSIG RMK QFE754/1006
  • 131522Z 24010G15MPS 9999 SCT035 24/18 Q1007 R24/CLRD95 NOSIG RMK QFE754/1005
  • 131500Z 24008G13MPS 9999 BKN033 24/18 Q1007 R24/CLRD95 NOSIG RMK QFE754/1005
  • 131453Z 24008G13MPS 9999 BKN025 25/19 Q1006 R24/CLRD95 NOSIG RMK QFE754/1005
  • 131430Z 24008MPS 9999 BKN025 24/19 Q1006 R24/CLRD95 NOSIG RMK QFE753/1005
  • 131415Z 24008G13MPS 9999 BKN016CB 24/19 Q1006 R24/95D NOSIG RMK QFE753/1005
  • 131346Z 22008G13MPS 190V250 9999 BKN016CB 23/20 Q1006 R24/95D NOSIG RMK QFE753/1004
  • 131330Z 20007MPS 9999 BKN018CB 24/20 Q1006 R24/95D NOSIG RMK QFE753/1004
  • 131300Z 21006MPS 160V250 9999 BKN020CB 25/20 Q1005 R24/CLRD95 NOSIG RMK QFE753/1004
  • 131230Z 20006MPS 160V240 9999 BKN024CB 25/20 Q1005 R24/CLRD95 NOSIG RMK QFE753/1004
  • 131200Z 20005MPS 150V230 9999 BKN021CB 25/20 Q1005 R24/CLRD95 NOSIG RMK QFE752/1003

TAF TAF UMKK
Valide du 13 à 15h jusqu'au 14 à 15h UTC


131356Z 1315/1415 23008G15MPS 9999 FEW010 BKN016
BECMG 1320/1322 24005G10MPS
BECMG 1400/1401 22003MPS



MET'MAP, la Météo Aéronautique d'un coup d'oeil ! - Copyright ORBIFLY Décembre 2007 - Disclaimer

ORBIFLY MET'MAP TEAM :

Programmation & Développement : Alexandra Zaïnal
Sur une idée originale de : Baudouin d'Aumeries
Soutien technique & logistique : Manuel Goepfert
Assistance : Marc-Olivier Méhu




SOURCES & CREDITS :

   NOAA